AAL509 KDCA-KCLT
Flight info
| Callsign | AAL509 |
|---|---|
| Flight time | 0h 59m |
| Altitude | 30000 |
| Route | SCRAM6 GLANC AIROW CHSLY6 |
| Aircraft | A320/M-SDE3FGHIRWY/LB1 |
Departure
| Time | 2026-05-06 21:56 |
|---|---|
| Airport | Ronald Reagan Washington National Airport (KDCA) |
Arrival
| Time | 2026-05-06 22:55 |
|---|---|
| Airport | Charlotte Douglas International Airport (KCLT) |
| Time | Latitude | Longitude | Altitude | Speed | Heading |
|---|---|---|---|---|---|
| 2026-05-06 21:35 | 38.85437 | -77.04233 | 29 ft | 0 kts | 163° |
| 2026-05-06 21:47 | 38.85451 | -77.04238 | 29 ft | 2 kts | 162° |
| 2026-05-06 21:47 | 38.85465 | -77.04243 | 29 ft | 1 kts | 163° |
| 2026-05-06 21:47 | 38.85474 | -77.04247 | 29 ft | 2 kts | 159° |
| 2026-05-06 21:48 | 38.85487 | -77.04256 | 29 ft | 2 kts | 141° |
| 2026-05-06 21:48 | 38.85495 | -77.04266 | 30 ft | 0 kts | 129° |
| 2026-05-06 21:48 | 38.85497 | -77.04246 | 29 ft | 2 kts | 70° |
| 2026-05-06 21:49 | 38.85498 | -77.04241 | 29 ft | 0 kts | 70° |
| 2026-05-06 21:52 | 38.85500 | -77.04235 | 29 ft | 2 kts | 71° |
| 2026-05-06 21:53 | 38.85511 | -77.04197 | 28 ft | 6 kts | 71° |
| 2026-05-06 21:53 | 38.85529 | -77.04125 | 26 ft | 10 kts | 75° |
| 2026-05-06 21:53 | 38.85549 | -77.04026 | 24 ft | 12 kts | 76° |
| 2026-05-06 21:53 | 38.85615 | -77.03961 | 21 ft | 14 kts | 357° |
| 2026-05-06 21:54 | 38.85720 | -77.03966 | 21 ft | 15 kts | 358° |
| 2026-05-06 21:54 | 38.85830 | -77.03980 | 21 ft | 16 kts | 349° |
| 2026-05-06 21:54 | 38.85947 | -77.03992 | 19 ft | 17 kts | 4° |
| 2026-05-06 21:54 | 38.86064 | -77.03928 | 17 ft | 18 kts | 24° |
| 2026-05-06 21:55 | 38.86101 | -77.03873 | 16 ft | 6 kts | 154° |
| 2026-05-06 21:55 | 38.86053 | -77.03867 | 17 ft | 20 kts | 176° |
| 2026-05-06 21:55 | 38.85601 | -77.03825 | 21 ft | 106 kts | 176° |
| 2026-05-06 21:55 | 38.84626 | -77.03725 | 87 ft | 167 kts | 176° |
| 2026-05-06 21:56 | 38.83441 | -77.03565 | 850 ft | 173 kts | 179° |
| 2026-05-06 21:56 | 38.82315 | -77.03519 | 1805 ft | 160 kts | 184° |
| 2026-05-06 21:56 | 38.81217 | -77.03510 | 2448 ft | 163 kts | 186° |
| 2026-05-06 21:56 | 38.80042 | -77.03516 | 2902 ft | 178 kts | 186° |
| 2026-05-06 21:57 | 38.78750 | -77.03522 | 3353 ft | 195 kts | 186° |
| 2026-05-06 21:57 | 38.77319 | -77.03590 | 3751 ft | 213 kts | 198° |
| 2026-05-06 21:57 | 38.75964 | -77.04411 | 4177 ft | 224 kts | 224° |
| 2026-05-06 21:57 | 38.75020 | -77.06020 | 4681 ft | 237 kts | 250° |
| 2026-05-06 21:58 | 38.74733 | -77.08103 | 5378 ft | 245 kts | 267° |
| 2026-05-06 21:58 | 38.74629 | -77.10290 | 6292 ft | 246 kts | 266° |
| 2026-05-06 21:58 | 38.74382 | -77.12425 | 7181 ft | 247 kts | 257° |
| 2026-05-06 21:58 | 38.73855 | -77.14494 | 8017 ft | 251 kts | 249° |
| 2026-05-06 21:59 | 38.73129 | -77.16526 | 8854 ft | 253 kts | 247° |
| 2026-05-06 21:59 | 38.72381 | -77.18542 | 9709 ft | 254 kts | 246° |
| 2026-05-06 21:59 | 38.71612 | -77.20555 | 10456 ft | 258 kts | 245° |
| 2026-05-06 21:59 | 38.70710 | -77.22615 | 10880 ft | 275 kts | 242° |
| 2026-05-06 22:00 | 38.69625 | -77.24731 | 11247 ft | 293 kts | 239° |
| 2026-05-06 22:00 | 38.68427 | -77.26877 | 11850 ft | 300 kts | 238° |
| 2026-05-06 22:00 | 38.67217 | -77.29039 | 12568 ft | 303 kts | 238° |
| 2026-05-06 22:00 | 38.65986 | -77.31235 | 13253 ft | 306 kts | 238° |
| 2026-05-06 22:01 | 38.64754 | -77.33432 | 13947 ft | 308 kts | 239° |
| 2026-05-06 22:01 | 38.63505 | -77.35657 | 14650 ft | 310 kts | 239° |
| 2026-05-06 22:01 | 38.62253 | -77.37885 | 15281 ft | 313 kts | 239° |
| 2026-05-06 22:01 | 38.60985 | -77.40140 | 15906 ft | 316 kts | 240° |
| 2026-05-06 22:02 | 38.59704 | -77.42418 | 16540 ft | 317 kts | 240° |
| 2026-05-06 22:02 | 38.58410 | -77.44720 | 17178 ft | 319 kts | 240° |
| 2026-05-06 22:02 | 38.57123 | -77.47006 | 17783 ft | 320 kts | 240° |
| 2026-05-06 22:02 | 38.55816 | -77.49322 | 18331 ft | 323 kts | 240° |
| 2026-05-06 22:03 | 38.54520 | -77.51623 | 18909 ft | 324 kts | 241° |
| 2026-05-06 22:03 | 38.53213 | -77.53939 | 19506 ft | 324 kts | 241° |
| 2026-05-06 22:03 | 38.51892 | -77.56280 | 20056 ft | 325 kts | 241° |
| 2026-05-06 22:03 | 38.50579 | -77.58603 | 20620 ft | 325 kts | 241° |
| 2026-05-06 22:04 | 38.49255 | -77.60945 | 21147 ft | 326 kts | 241° |
| 2026-05-06 22:04 | 38.47925 | -77.63294 | 21663 ft | 327 kts | 241° |
| 2026-05-06 22:04 | 38.46603 | -77.65631 | 22184 ft | 328 kts | 240° |
| 2026-05-06 22:04 | 38.45211 | -77.67932 | 22707 ft | 331 kts | 237° |
| 2026-05-06 22:05 | 38.43720 | -77.70157 | 23248 ft | 332 kts | 236° |
| 2026-05-06 22:05 | 38.42199 | -77.72398 | 23752 ft | 333 kts | 236° |
| 2026-05-06 22:05 | 38.40680 | -77.74633 | 24197 ft | 336 kts | 236° |
| 2026-05-06 22:05 | 38.39159 | -77.76870 | 24613 ft | 339 kts | 236° |
| 2026-05-06 22:06 | 38.37602 | -77.79154 | 25034 ft | 341 kts | 236° |
| 2026-05-06 22:06 | 38.36072 | -77.81438 | 25492 ft | 341 kts | 237° |
| 2026-05-06 22:06 | 38.34553 | -77.83781 | 25917 ft | 343 kts | 237° |
| 2026-05-06 22:06 | 38.33036 | -77.86125 | 26324 ft | 344 kts | 237° |
| 2026-05-06 22:07 | 38.31522 | -77.88451 | 26702 ft | 347 kts | 237° |
| 2026-05-06 22:07 | 38.29989 | -77.90814 | 27090 ft | 348 kts | 237° |
| 2026-05-06 22:07 | 38.28435 | -77.93198 | 27442 ft | 350 kts | 237° |
| 2026-05-06 22:07 | 38.26881 | -77.95585 | 27778 ft | 353 kts | 237° |
| 2026-05-06 22:08 | 38.25320 | -77.97980 | 28144 ft | 354 kts | 237° |
| 2026-05-06 22:08 | 38.23729 | -78.00414 | 28472 ft | 356 kts | 237° |
| 2026-05-06 22:08 | 38.22148 | -78.02833 | 28802 ft | 357 kts | 237° |
| 2026-05-06 22:08 | 38.20564 | -78.05250 | 29150 ft | 358 kts | 237° |
| 2026-05-06 22:09 | 38.18985 | -78.07666 | 29451 ft | 360 kts | 237° |
| 2026-05-06 22:09 | 38.17378 | -78.10115 | 29766 ft | 361 kts | 237° |
| 2026-05-06 22:09 | 38.14157 | -78.15023 | 29858 ft | 361 kts | 237° |
| 2026-05-06 22:10 | 38.10932 | -78.19926 | 29861 ft | 360 kts | 237° |
| 2026-05-06 22:10 | 38.07725 | -78.24797 | 29860 ft | 361 kts | 237° |
| 2026-05-06 22:11 | 38.04555 | -78.29710 | 29854 ft | 361 kts | 237° |
| 2026-05-06 22:11 | 38.01414 | -78.34623 | 29858 ft | 359 kts | 237° |
| 2026-05-06 22:12 | 37.98255 | -78.39541 | 29849 ft | 360 kts | 238° |
| 2026-05-06 22:12 | 37.95101 | -78.44452 | 29848 ft | 360 kts | 237° |
| 2026-05-06 22:13 | 37.91948 | -78.49343 | 29849 ft | 361 kts | 238° |
| 2026-05-06 22:13 | 37.88764 | -78.54282 | 29853 ft | 361 kts | 237° |
| 2026-05-06 22:14 | 37.85589 | -78.59190 | 29852 ft | 359 kts | 237° |
| 2026-05-06 22:14 | 37.82423 | -78.64082 | 29853 ft | 361 kts | 238° |
| 2026-05-06 22:15 | 37.79240 | -78.68988 | 29856 ft | 362 kts | 237° |
| 2026-05-06 22:15 | 37.76040 | -78.73911 | 29858 ft | 361 kts | 236° |
| 2026-05-06 22:16 | 37.72640 | -78.78574 | 29861 ft | 365 kts | 231° |
| 2026-05-06 22:16 | 37.68795 | -78.82891 | 29863 ft | 373 kts | 227° |
| 2026-05-06 22:17 | 37.64648 | -78.86842 | 29870 ft | 375 kts | 225° |
| 2026-05-06 22:17 | 37.60477 | -78.90768 | 29871 ft | 374 kts | 225° |
| 2026-05-06 22:18 | 37.56294 | -78.94680 | 29874 ft | 375 kts | 225° |
| 2026-05-06 22:18 | 37.52081 | -78.98613 | 29879 ft | 378 kts | 225° |
| 2026-05-06 22:19 | 37.47884 | -79.02520 | 29877 ft | 376 kts | 225° |
| 2026-05-06 22:19 | 37.43662 | -79.06435 | 29883 ft | 378 kts | 224° |
| 2026-05-06 22:20 | 37.39369 | -79.10209 | 29885 ft | 380 kts | 223° |
| 2026-05-06 22:20 | 37.35024 | -79.13984 | 29891 ft | 380 kts | 223° |
| 2026-05-06 22:21 | 37.30690 | -79.17760 | 29886 ft | 381 kts | 223° |
| 2026-05-06 22:21 | 37.26321 | -79.21565 | 29889 ft | 381 kts | 223° |
| 2026-05-06 22:22 | 37.22010 | -79.25385 | 29902 ft | 382 kts | 224° |
| 2026-05-06 22:22 | 37.17691 | -79.29298 | 29904 ft | 382 kts | 224° |
| 2026-05-06 22:23 | 37.13392 | -79.33175 | 29894 ft | 382 kts | 224° |
| 2026-05-06 22:23 | 37.09082 | -79.37059 | 29893 ft | 382 kts | 224° |
| 2026-05-06 22:24 | 37.04788 | -79.40915 | 29892 ft | 381 kts | 224° |
| 2026-05-06 22:24 | 37.00457 | -79.44765 | 29891 ft | 383 kts | 223° |
| 2026-05-06 22:25 | 36.96028 | -79.48502 | 29892 ft | 384 kts | 222° |
| 2026-05-06 22:25 | 36.91607 | -79.52219 | 29896 ft | 384 kts | 222° |
| 2026-05-06 22:26 | 36.87175 | -79.55950 | 29895 ft | 386 kts | 223° |
| 2026-05-06 22:26 | 36.82722 | -79.59698 | 29901 ft | 387 kts | 223° |
| 2026-05-06 22:27 | 36.78282 | -79.63431 | 29897 ft | 385 kts | 223° |
| 2026-05-06 22:27 | 36.73822 | -79.67166 | 29903 ft | 387 kts | 222° |
| 2026-05-06 22:28 | 36.69371 | -79.70892 | 29900 ft | 387 kts | 222° |
| 2026-05-06 22:28 | 36.64901 | -79.74629 | 29900 ft | 387 kts | 222° |
| 2026-05-06 22:29 | 36.60427 | -79.78362 | 29908 ft | 388 kts | 222° |
| 2026-05-06 22:29 | 36.55965 | -79.82080 | 29911 ft | 386 kts | 222° |
| 2026-05-06 22:30 | 36.51503 | -79.85796 | 29208 ft | 393 kts | 221° |
| 2026-05-06 22:30 | 36.49223 | -79.87695 | 28394 ft | 395 kts | 221° |
| 2026-05-06 22:30 | 36.46942 | -79.89588 | 27712 ft | 393 kts | 221° |
| 2026-05-06 22:31 | 36.44681 | -79.91460 | 27225 ft | 386 kts | 221° |
| 2026-05-06 22:31 | 36.42495 | -79.93269 | 26752 ft | 380 kts | 221° |
| 2026-05-06 22:31 | 36.40287 | -79.95097 | 26223 ft | 376 kts | 221° |
| 2026-05-06 22:31 | 36.38131 | -79.96880 | 25726 ft | 372 kts | 221° |
| 2026-05-06 22:32 | 36.35989 | -79.98654 | 25208 ft | 368 kts | 221° |
| 2026-05-06 22:32 | 36.33874 | -80.00405 | 24702 ft | 365 kts | 221° |
| 2026-05-06 22:32 | 36.31797 | -80.02123 | 24210 ft | 362 kts | 221° |
| 2026-05-06 22:32 | 36.29718 | -80.03840 | 23727 ft | 358 kts | 221° |
| 2026-05-06 22:33 | 36.27643 | -80.05550 | 23251 ft | 355 kts | 221° |
| 2026-05-06 22:33 | 36.25601 | -80.07233 | 22761 ft | 352 kts | 220° |
| 2026-05-06 22:33 | 36.23576 | -80.08900 | 22308 ft | 349 kts | 221° |
| 2026-05-06 22:33 | 36.21574 | -80.10548 | 21836 ft | 346 kts | 221° |
| 2026-05-06 22:34 | 36.19572 | -80.12193 | 21368 ft | 344 kts | 221° |
| 2026-05-06 22:34 | 36.17579 | -80.13831 | 20918 ft | 342 kts | 221° |
| 2026-05-06 22:34 | 36.15616 | -80.15445 | 20477 ft | 339 kts | 222° |
| 2026-05-06 22:34 | 36.13648 | -80.17061 | 20034 ft | 337 kts | 222° |
| 2026-05-06 22:35 | 36.11714 | -80.18650 | 19595 ft | 335 kts | 222° |
| 2026-05-06 22:35 | 36.09792 | -80.20225 | 19178 ft | 332 kts | 223° |
| 2026-05-06 22:35 | 36.07873 | -80.21803 | 18763 ft | 329 kts | 222° |
| 2026-05-06 22:35 | 36.05969 | -80.23364 | 18336 ft | 327 kts | 222° |
| 2026-05-06 22:36 | 36.04101 | -80.24892 | 17911 ft | 325 kts | 223° |
| 2026-05-06 22:36 | 36.02228 | -80.26425 | 17479 ft | 323 kts | 223° |
| 2026-05-06 22:36 | 36.00364 | -80.27953 | 17062 ft | 321 kts | 223° |
| 2026-05-06 22:36 | 35.98515 | -80.29459 | 16843 ft | 312 kts | 223° |
| 2026-05-06 22:37 | 35.96718 | -80.30928 | 16466 ft | 309 kts | 223° |
| 2026-05-06 22:37 | 35.94927 | -80.32395 | 16047 ft | 308 kts | 223° |
| 2026-05-06 22:37 | 35.93160 | -80.33842 | 15633 ft | 307 kts | 223° |
| 2026-05-06 22:37 | 35.91369 | -80.35306 | 15202 ft | 306 kts | 222° |
| 2026-05-06 22:38 | 35.89598 | -80.36751 | 14777 ft | 305 kts | 222° |
| 2026-05-06 22:38 | 35.87852 | -80.38172 | 14371 ft | 303 kts | 222° |
| 2026-05-06 22:38 | 35.86091 | -80.39608 | 14039 ft | 298 kts | 221° |
| 2026-05-06 22:38 | 35.84407 | -80.40968 | 13910 ft | 286 kts | 221° |
| 2026-05-06 22:39 | 35.82794 | -80.42345 | 13810 ft | 272 kts | 225° |
| 2026-05-06 22:39 | 35.81329 | -80.43751 | 13451 ft | 270 kts | 226° |
| 2026-05-06 22:39 | 35.79846 | -80.45189 | 13076 ft | 269 kts | 226° |
| 2026-05-06 22:39 | 35.78391 | -80.46595 | 12710 ft | 268 kts | 226° |
| 2026-05-06 22:40 | 35.76925 | -80.48012 | 12341 ft | 267 kts | 226° |
| 2026-05-06 22:40 | 35.75444 | -80.49351 | 11998 ft | 268 kts | 219° |
| 2026-05-06 22:40 | 35.73764 | -80.50414 | 11658 ft | 272 kts | 211° |
| 2026-05-06 22:40 | 35.71974 | -80.51183 | 11314 ft | 273 kts | 206° |
| 2026-05-06 22:41 | 35.68361 | -80.52576 | 10602 ft | 271 kts | 205° |
| 2026-05-06 22:41 | 35.66563 | -80.53264 | 10248 ft | 270 kts | 205° |
| 2026-05-06 22:41 | 35.64781 | -80.53946 | 9895 ft | 269 kts | 205° |
| 2026-05-06 22:42 | 35.62992 | -80.54633 | 9551 ft | 268 kts | 205° |
| 2026-05-06 22:42 | 35.61203 | -80.55320 | 9199 ft | 267 kts | 205° |
| 2026-05-06 22:42 | 35.59462 | -80.55988 | 8987 ft | 259 kts | 206° |
| 2026-05-06 22:42 | 35.57935 | -80.56953 | 8844 ft | 234 kts | 231° |
| 2026-05-06 22:43 | 35.57101 | -80.58553 | 8663 ft | 221 kts | 255° |
| 2026-05-06 22:43 | 35.56917 | -80.60403 | 8335 ft | 219 kts | 270° |
| 2026-05-06 22:43 | 35.56915 | -80.62250 | 8021 ft | 219 kts | 269° |
| 2026-05-06 22:43 | 35.56899 | -80.64114 | 7710 ft | 218 kts | 269° |
| 2026-05-06 22:44 | 35.56879 | -80.65971 | 7403 ft | 218 kts | 268° |
| 2026-05-06 22:44 | 35.56856 | -80.67819 | 7100 ft | 217 kts | 268° |
| 2026-05-06 22:44 | 35.56834 | -80.69682 | 6798 ft | 217 kts | 268° |
| 2026-05-06 22:44 | 35.56812 | -80.71536 | 6496 ft | 217 kts | 267° |
| 2026-05-06 22:45 | 35.56789 | -80.73371 | 6206 ft | 217 kts | 267° |
| 2026-05-06 22:45 | 35.56768 | -80.75211 | 5980 ft | 213 kts | 267° |
| 2026-05-06 22:45 | 35.56747 | -80.76975 | 5966 ft | 203 kts | 266° |
| 2026-05-06 22:45 | 35.56675 | -80.78704 | 5968 ft | 203 kts | 262° |
| 2026-05-06 22:46 | 35.56279 | -80.80360 | 5963 ft | 204 kts | 245° |
| 2026-05-06 22:46 | 35.55624 | -80.81915 | 5952 ft | 204 kts | 243° |
| 2026-05-06 22:46 | 35.54947 | -80.83460 | 5967 ft | 204 kts | 243° |
| 2026-05-06 22:46 | 35.54291 | -80.84992 | 5962 ft | 203 kts | 243° |
| 2026-05-06 22:47 | 35.53650 | -80.86518 | 5959 ft | 200 kts | 243° |
| 2026-05-06 22:47 | 35.53024 | -80.88026 | 5953 ft | 198 kts | 244° |
| 2026-05-06 22:47 | 35.52409 | -80.89521 | 5963 ft | 195 kts | 244° |
| 2026-05-06 22:47 | 35.51801 | -80.91005 | 5960 ft | 192 kts | 244° |
| 2026-05-06 22:48 | 35.51212 | -80.92444 | 5957 ft | 189 kts | 244° |
| 2026-05-06 22:48 | 35.50624 | -80.93875 | 5962 ft | 187 kts | 244° |
| 2026-05-06 22:48 | 35.49786 | -80.95160 | 5833 ft | 196 kts | 215° |
| 2026-05-06 22:48 | 35.48484 | -80.95689 | 5582 ft | 201 kts | 192° |
| 2026-05-06 22:49 | 35.47107 | -80.95739 | 5417 ft | 195 kts | 185° |
| 2026-05-06 22:49 | 35.45773 | -80.95641 | 5140 ft | 192 kts | 182° |
| 2026-05-06 22:49 | 35.44443 | -80.95512 | 4864 ft | 188 kts | 182° |
| 2026-05-06 22:49 | 35.43160 | -80.95390 | 4604 ft | 183 kts | 182° |
| 2026-05-06 22:50 | 35.41903 | -80.95274 | 4355 ft | 178 kts | 182° |
| 2026-05-06 22:50 | 35.40680 | -80.95165 | 4113 ft | 173 kts | 182° |
| 2026-05-06 22:50 | 35.39497 | -80.95063 | 3881 ft | 168 kts | 182° |
| 2026-05-06 22:50 | 35.38353 | -80.94964 | 3695 ft | 159 kts | 183° |
| 2026-05-06 22:51 | 35.37273 | -80.94872 | 3483 ft | 152 kts | 182° |
| 2026-05-06 22:51 | 35.36250 | -80.94784 | 3286 ft | 144 kts | 183° |
| 2026-05-06 22:51 | 35.35255 | -80.94701 | 3113 ft | 142 kts | 183° |
| 2026-05-06 22:51 | 35.34269 | -80.94620 | 2949 ft | 145 kts | 183° |
| 2026-05-06 22:52 | 35.33248 | -80.94534 | 2788 ft | 148 kts | 183° |
| 2026-05-06 22:52 | 35.32235 | -80.94448 | 2598 ft | 147 kts | 182° |
| 2026-05-06 22:52 | 35.31208 | -80.94360 | 2406 ft | 147 kts | 182° |
| 2026-05-06 22:52 | 35.30191 | -80.94272 | 2211 ft | 147 kts | 182° |
| 2026-05-06 22:53 | 35.29174 | -80.94184 | 2014 ft | 146 kts | 182° |
| 2026-05-06 22:53 | 35.28147 | -80.94096 | 1823 ft | 146 kts | 182° |
| 2026-05-06 22:53 | 35.27141 | -80.94010 | 1633 ft | 146 kts | 181° |
| 2026-05-06 22:53 | 35.26128 | -80.93924 | 1450 ft | 147 kts | 181° |
| 2026-05-06 22:54 | 35.25102 | -80.93836 | 1262 ft | 147 kts | 181° |
| 2026-05-06 22:54 | 35.24080 | -80.93749 | 1077 ft | 148 kts | 180° |
| 2026-05-06 22:54 | 35.23043 | -80.93660 | 887 ft | 148 kts | 180° |
| 2026-05-06 22:54 | 35.22020 | -80.93574 | 740 ft | 145 kts | 179° |
| 2026-05-06 22:55 | 35.21225 | -80.93514 | 726 ft | 72 kts | 178° |
| 2026-05-06 22:55 | 35.20964 | -80.93510 | 721 ft | 22 kts | 203° |
| 2026-05-06 22:55 | 35.20926 | -80.93584 | 721 ft | 10 kts | 286° |
| 2026-05-06 22:55 | 35.20982 | -80.93617 | 722 ft | 9 kts | 1° |
| 2026-05-06 22:56 | 35.21045 | -80.93621 | 723 ft | 9 kts | 355° |
| 2026-05-06 22:56 | 35.21121 | -80.93630 | 724 ft | 11 kts | 353° |
| 2026-05-06 22:56 | 35.21198 | -80.93639 | 726 ft | 10 kts | 355° |
| 2026-05-06 22:56 | 35.21273 | -80.93645 | 727 ft | 11 kts | 356° |
| 2026-05-06 22:57 | 35.21358 | -80.93653 | 729 ft | 13 kts | 355° |
| 2026-05-06 22:57 | 35.21452 | -80.93662 | 731 ft | 13 kts | 355° |
| 2026-05-06 22:57 | 35.21545 | -80.93671 | 731 ft | 13 kts | 354° |
| 2026-05-06 22:57 | 35.21617 | -80.93741 | 730 ft | 14 kts | 309° |
| 2026-05-06 22:58 | 35.21687 | -80.93846 | 728 ft | 15 kts | 313° |
| 2026-05-06 22:58 | 35.21748 | -80.93919 | 728 ft | 12 kts | 319° |
| 2026-05-06 22:58 | 35.21808 | -80.93986 | 728 ft | 10 kts | 300° |
| 2026-05-06 22:58 | 35.21775 | -80.94067 | 726 ft | 12 kts | 237° |
| 2026-05-06 22:59 | 35.21703 | -80.94149 | 723 ft | 15 kts | 226° |
| 2026-05-06 22:59 | 35.21674 | -80.94264 | 720 ft | 14 kts | 278° |
| 2026-05-06 22:59 | 35.21692 | -80.94379 | 719 ft | 11 kts | 327° |
| 2026-05-06 22:59 | 35.21771 | -80.94392 | 721 ft | 11 kts | 356° |
| 2026-05-06 23:00 | 35.21838 | -80.94386 | 722 ft | 9 kts | 5° |
| 2026-05-06 23:00 | 35.21904 | -80.94383 | 722 ft | 9 kts | 355° |
| 2026-05-06 23:00 | 35.21962 | -80.94390 | 723 ft | 4 kts | 342° |
| 2026-05-06 23:00 | 35.21983 | -80.94428 | 723 ft | 6 kts | 286° |
| 2026-05-06 23:01 | 35.21988 | -80.94450 | 723 ft | 0 kts | 285° |